Time;durP1;ratioP1;P1;durP2;ratioP2;P2;SDS_P1;SDS_P2;PMS_P1;PMS_P2;Temp;Humidity;BMP_temperature;BMP_pressure;BME280_temperature;BME280_humidity;BME280_pressure;Samples;Min_cycle;Max_cycle;Signal;HPM_P1;HPM_P2
2021/08/27 00:00:07;;;;;;;2.42;0.40;;;14.60;81.40;;;;;;2058203;28;20034;-88
2021/08/27 00:01:08;;;;;;;3.25;0.40;;;14.70;81.50;;;;;;2057976;28;20081;-88
2021/08/27 00:02:08;;;;;;;1.83;0.40;;;14.60;81.50;;;;;;2055545;28;20110;-88
2021/08/27 00:03:09;;;;;;;2.13;0.30;;;14.60;81.50;;;;;;2052375;28;20058;-88
2021/08/27 00:04:10;;;;;;;1.58;0.45;;;14.70;81.60;;;;;;2044360;28;20035;-88
2021/08/27 00:05:11;;;;;;;2.42;0.50;;;14.60;81.50;;;;;;2048855;28;20102;-88
2021/08/27 00:06:11;;;;;;;1.80;0.57;;;14.60;81.60;;;;;;2065420;28;20133;-87
2021/08/27 00:07:12;;;;;;;1.52;0.35;;;14.60;81.60;;;;;;2057339;28;20074;-88
2021/08/27 00:08:12;;;;;;;1.45;0.50;;;14.60;81.60;;;;;;2056376;28;20406;-88
2021/08/27 00:09:13;;;;;;;2.78;0.50;;;14.60;81.70;;;;;;2051481;28;20054;-88
2021/08/27 00:10:14;;;;;;;2.15;0.40;;;14.60;81.70;;;;;;2049603;29;20393;-88
2021/08/27 00:11:14;;;;;;;0.80;0.40;;;14.50;81.70;;;;;;2059433;28;20140;-89
2021/08/27 00:12:16;;;;;;;2.63;0.50;;;14.60;81.80;;;;;;2065162;28;20043;-88
2021/08/27 00:13:17;;;;;;;1.38;0.40;;;14.50;81.70;;;;;;2055922;28;20125;-88
2021/08/27 00:14:17;;;;;;;1.02;0.40;;;14.50;81.70;;;;;;2056823;28;20051;-88
2021/08/27 00:15:19;;;;;;;4.57;0.50;;;14.50;81.80;;;;;;2054010;28;20082;-88
2021/08/27 00:16:20;;;;;;;1.40;0.38;;;14.50;81.90;;;;;;2049962;28;20038;-88
2021/08/27 00:17:29;;;;;;;2.38;0.40;;;14.50;81.90;;;;;;2050289;28;20951;-88
2021/08/27 00:18:29;;;;;;;1.45;0.50;;;14.50;82.00;;;;;;2053867;28;20054;-88
2021/08/27 00:19:30;;;;;;;2.17;0.50;;;14.50;82.00;;;;;;2058218;28;20493;-87
2021/08/27 00:20:31;;;;;;;1.95;0.55;;;14.50;82.00;;;;;;2054408;28;20031;-87
2021/08/27 00:21:32;;;;;;;1.45;0.40;;;14.40;81.90;;;;;;2056024;28;20031;-87
2021/08/27 00:22:33;;;;;;;1.45;0.47;;;14.40;82.10;;;;;;2048022;28;20110;-88
2021/08/27 00:23:34;;;;;;;2.50;0.50;;;14.40;82.10;;;;;;2041936;29;20090;-87
2021/08/27 00:24:34;;;;;;;2.17;0.40;;;14.40;82.20;;;;;;2055299;28;20031;-88
2021/08/27 00:25:35;;;;;;;3.55;0.52;;;14.40;82.30;;;;;;2047245;28;20521;-88
2021/08/27 00:26:36;;;;;;;1.27;0.30;;;14.40;82.30;;;;;;2030289;29;20055;-87
2021/08/27 00:27:37;;;;;;;1.23;0.30;;;14.30;82.30;;;;;;2039614;29;20044;-88
2021/08/27 00:28:37;;;;;;;2.20;0.40;;;14.30;82.30;;;;;;2051660;28;20054;-89
2021/08/27 00:29:38;;;;;;;1.33;0.30;;;14.30;82.40;;;;;;2056431;28;20074;-88
2021/08/27 00:30:38;;;;;;;3.05;0.40;;;14.30;82.40;;;;;;2053121;28;20035;-88
2021/08/27 00:31:39;;;;;;;1.48;0.30;;;14.30;82.40;;;;;;2056351;28;20413;-88
2021/08/27 00:32:40;;;;;;;2.25;0.35;;;14.40;82.50;;;;;;2055618;28;20039;-88
2021/08/27 00:33:41;;;;;;;2.50;0.50;;;14.30;82.30;;;;;;2045815;28;20363;-88
2021/08/27 00:34:41;;;;;;;1.38;0.40;;;14.30;82.40;;;;;;2049068;28;20179;-88
2021/08/27 00:35:42;;;;;;;1.08;0.40;;;14.30;82.40;;;;;;2048454;28;20059;-88
2021/08/27 00:36:42;;;;;;;1.08;0.40;;;14.30;82.50;;;;;;2055160;28;20042;-88
2021/08/27 00:37:43;;;;;;;2.13;0.40;;;14.30;82.50;;;;;;2057122;28;20046;-88
2021/08/27 00:38:44;;;;;;;2.67;0.40;;;14.30;82.50;;;;;;2048723;28;20514;-87
2021/08/27 00:39:44;;;;;;;3.20;0.60;;;14.20;82.50;;;;;;2041116;29;20083;-88
2021/08/27 00:40:45;;;;;;;0.82;0.30;;;14.30;82.70;;;;;;2041089;29;20132;-87
2021/08/27 00:41:46;;;;;;;3.83;0.50;;;14.20;82.70;;;;;;2056375;28;20545;-88
2021/08/27 00:42:47;;;;;;;1.48;0.30;;;14.20;82.70;;;;;;2049228;29;20044;-88
2021/08/27 00:43:47;;;;;;;2.25;0.55;;;14.20;82.70;;;;;;2049289;28;20035;-88
2021/08/27 00:44:48;;;;;;;2.63;0.47;;;14.20;82.70;;;;;;2057366;28;20065;-88
2021/08/27 00:45:49;;;;;;;1.77;0.40;;;14.20;82.70;;;;;;2055531;28;20520;-88
2021/08/27 00:46:49;;;;;;;1.92;0.30;;;14.20;82.80;;;;;;2048609;28;20046;-88
2021/08/27 00:47:50;;;;;;;1.50;0.32;;;14.20;82.90;;;;;;2049362;28;20047;-88
2021/08/27 00:48:51;;;;;;;2.13;0.30;;;14.20;82.90;;;;;;2050012;28;20028;-88
2021/08/27 00:49:51;;;;;;;2.65;0.40;;;14.20;82.80;;;;;;2048946;29;20082;-88
2021/08/27 00:50:53;;;;;;;2.08;0.30;;;14.20;82.80;;;;;;2052526;28;20049;-88
2021/08/27 00:51:53;;;;;;;1.42;0.38;;;14.20;82.90;;;;;;2057267;28;20494;-88
2021/08/27 00:52:54;;;;;;;1.52;0.30;;;14.20;82.90;;;;;;2049051;29;20045;-88
2021/08/27 00:53:55;;;;;;;1.73;0.40;;;14.20;82.90;;;;;;2040641;29;20040;-88
2021/08/27 00:54:55;;;;;;;1.73;0.40;;;14.20;83.00;;;;;;2040595;29;20176;-88
2021/08/27 00:55:56;;;;;;;2.53;0.60;;;14.10;82.90;;;;;;2047371;29;20552;-88
2021/08/27 00:56:56;;;;;;;2.22;0.45;;;14.10;82.90;;;;;;2055797;28;20042;-87
2021/08/27 00:57:57;;;;;;;2.65;0.43;;;14.10;83.00;;;;;;2054511;28;20066;-88
2021/08/27 00:58:59;;;;;;;1.55;0.38;;;14.20;83.00;;;;;;2057100;28;20039;-88
2021/08/27 01:00:00;;;;;;;1.08;0.30;;;14.10;83.00;;;;;;2045359;28;20043;-87
2021/08/27 01:01:01;;;;;;;1.90;0.30;;;14.10;83.00;;;;;;2048393;28;20031;-88
2021/08/27 01:02:02;;;;;;;1.13;0.40;;;14.10;83.10;;;;;;2056989;28;20046;-88
2021/08/27 01:03:03;;;;;;;0.73;0.30;;;14.10;83.10;;;;;;2049036;28;20061;-88
2021/08/27 01:04:04;;;;;;;0.50;0.30;;;14.10;83.10;;;;;;2053385;28;20062;-88
2021/08/27 01:05:07;;;;;;;1.08;0.40;;;14.10;83.20;;;;;;2061998;28;20447;-88
2021/08/27 01:06:29;;;;;;;1.05;0.40;;;14.10;83.20;;;;;;2062243;28;20086;-90
2021/08/27 01:07:33;;;;;;;1.85;0.40;;;14.00;83.20;;;;;;2062206;28;20031;-88
2021/08/27 01:08:47;;;;;;;1.30;0.22;;;14.00;83.30;;;;;;2056727;28;20556;-88
2021/08/27 01:10:08;;;;;;;2.10;0.40;;;14.00;83.30;;;;;;2060037;28;20041;-88
2021/08/27 01:11:15;;;;;;;1.55;0.43;;;14.00;83.30;;;;;;2063285;28;20056;-88
2021/08/27 01:12:32;;;;;;;2.17;0.30;;;14.00;83.40;;;;;;2057316;28;20039;-87
2021/08/27 01:13:45;;;;;;;0.93;0.30;;;14.00;83.40;;;;;;2043914;28;20044;-88
2021/08/27 01:14:53;;;;;;;0.82;0.20;;;13.90;83.50;;;;;;2050480;28;20035;-88
2021/08/27 01:16:26;;;;;;;0.55;0.30;;;13.90;83.50;;;;;;2052856;28;20117;-87
2021/08/27 01:17:36;;;;;;;0.70;0.20;;;13.90;83.50;;;;;;2044938;28;20058;-88
2021/08/27 01:18:45;;;;;;;1.13;0.38;;;13.90;83.60;;;;;;2051620;28;20042;-88
2021/08/27 01:19:45;;;;;;;1.58;0.30;;;13.90;83.60;;;;;;2051812;28;20043;-88
2021/08/27 01:20:58;;;;;;;1.45;0.30;;;13.90;83.70;;;;;;2050638;28;20509;-88
2021/08/27 01:22:38;;;;;;;0.98;0.28;;;13.90;83.70;;;;;;2044284;29;20044;-88
2021/08/27 01:23:54;;;;;;;1.13;0.40;;;13.80;83.70;;;;;;2054391;28;20038;-87
2021/08/27 01:24:56;;;;;;;1.17;0.20;;;13.80;83.70;;;;;;2052448;28;20067;-88
2021/08/27 01:25:58;;;;;;;0.82;0.40;;;13.80;84.30;;;;;;2047083;28;20051;-87
2021/08/27 01:27:03;;;;;;;1.15;0.30;;;13.80;83.80;;;;;;2050891;28;20066;-88
2021/08/27 01:28:08;;;;;;;1.50;0.30;;;13.80;83.80;;;;;;2050387;28;20417;-88
2021/08/27 01:29:10;;;;;;;1.00;0.22;;;13.80;83.90;;;;;;2059432;28;20164;-88
2021/08/27 01:30:43;;;;;;;3.22;0.50;;;13.80;83.80;;;;;;2050820;28;20043;-88
2021/08/27 01:31:54;;;;;;;1.67;0.40;;;13.80;83.80;;;;;;2054357;28;20041;-88
2021/08/27 01:33:06;;;;;;;1.80;0.40;;;13.80;83.90;;;;;;2057873;28;20062;-88
2021/08/27 01:34:38;;;;;;;0.90;0.30;;;13.80;83.90;;;;;;2054817;28;20050;-88
2021/08/27 01:35:40;;;;;;;1.15;0.30;;;13.80;83.90;;;;;;2060272;28;20031;-88
2021/08/27 01:36:42;;;;;;;1.83;0.40;;;13.80;83.90;;;;;;2060729;28;20039;-87
2021/08/27 01:37:48;;;;;;;1.70;0.30;;;13.80;83.90;;;;;;2060102;28;20030;-87
2021/08/27 01:38:50;;;;;;;1.38;0.45;;;13.80;84.00;;;;;;2065268;28;20034;-88
2021/08/27 01:39:56;;;;;;;2.22;0.55;;;13.80;84.00;;;;;;2057784;28;20071;-88
2021/08/27 01:40:57;;;;;;;3.30;0.60;;;13.70;84.00;;;;;;2050531;29;20106;-88
2021/08/27 01:41:59;;;;;;;1.58;0.40;;;13.80;84.00;;;;;;2055290;28;20053;-87
2021/08/27 01:43:07;;;;;;;1.25;0.43;;;13.80;84.10;;;;;;2057583;28;20030;-88
2021/08/27 01:44:11;;;;;;;2.05;0.40;;;13.80;84.10;;;;;;2060679;28;20038;-88
2021/08/27 01:45:14;;;;;;;2.05;0.50;;;13.80;84.10;;;;;;2050309;29;20035;-88
2021/08/27 01:46:16;;;;;;;2.75;0.40;;;13.80;84.10;;;;;;2042687;28;20032;-88
2021/08/27 01:47:21;;;;;;;0.63;0.30;;;13.80;84.10;;;;;;2041935;29;20044;-88
2021/08/27 01:48:24;;;;;;;3.65;0.63;;;13.80;84.10;;;;;;2051283;28;20834;-87
2021/08/27 01:49:29;;;;;;;2.35;0.57;;;13.80;84.20;;;;;;2060374;28;20113;-88
2021/08/27 01:50:31;;;;;;;0.82;0.30;;;13.80;84.20;;;;;;2057648;28;20070;-88
2021/08/27 01:51:34;;;;;;;2.15;0.35;;;13.80;84.20;;;;;;2063330;28;20043;-87
2021/08/27 01:52:38;;;;;;;1.67;0.45;;;13.80;84.20;;;;;;2073472;28;20035;-88
2021/08/27 01:53:41;;;;;;;0.77;0.30;;;13.90;84.30;;;;;;2058897;28;20477;-88
2021/08/27 01:54:42;;;;;;;2.13;0.40;;;13.90;84.30;;;;;;2050353;28;20043;-87
2021/08/27 01:55:44;;;;;;;1.95;0.50;;;13.90;84.30;;;;;;2057403;28;20039;-88
2021/08/27 01:56:45;;;;;;;1.35;0.40;;;13.90;84.30;;;;;;2049819;28;20039;-88
2021/08/27 01:57:47;;;;;;;2.38;0.50;;;13.90;84.30;;;;;;2046112;28;20044;-88
2021/08/27 01:58:48;;;;;;;1.98;0.43;;;13.90;84.30;;;;;;2049972;28;20130;-88
2021/08/27 01:59:49;;;;;;;1.42;0.40;;;13.90;84.30;;;;;;2047776;28;20095;-88
2021/08/27 02:00:50;;;;;;;1.15;0.40;;;13.90;84.30;;;;;;2042491;29;20482;-88
2021/08/27 02:01:51;;;;;;;2.03;0.50;;;13.90;84.30;;;;;;2049540;28;20047;-88
2021/08/27 02:02:53;;;;;;;3.55;0.40;;;13.90;84.30;;;;;;2062884;28;20046;-88
2021/08/27 02:03:55;;;;;;;2.80;0.40;;;13.90;84.30;;;;;;2066020;28;20042;-88
2021/08/27 02:04:59;;;;;;;2.08;0.57;;;13.90;84.20;;;;;;2066346;28;20493;-88
2021/08/27 02:06:00;;;;;;;1.17;0.40;;;13.90;84.30;;;;;;2058715;28;20063;-88
2021/08/27 02:07:04;;;;;;;2.53;0.40;;;14.00;84.30;;;;;;2057203;28;20605;-87
2021/08/27 02:08:05;;;;;;;2.60;0.50;;;13.90;84.30;;;;;;2054898;28;20030;-88
2021/08/27 02:09:06;;;;;;;2.65;0.50;;;14.00;84.30;;;;;;2057676;28;20050;-88
2021/08/27 02:10:08;;;;;;;0.95;0.35;;;14.00;84.30;;;;;;2050107;29;20047;-89
2021/08/27 02:11:08;;;;;;;3.10;0.50;;;14.00;84.30;;;;;;2050345;28;20042;-88
2021/08/27 02:12:09;;;;;;;3.03;0.45;;;14.00;84.20;;;;;;2056738;28;20035;-88
2021/08/27 02:13:12;;;;;;;4.03;0.50;;;14.00;84.20;;;;;;2056855;28;20548;-88
2021/08/27 02:14:14;;;;;;;2.50;0.60;;;14.00;84.30;;;;;;2050327;28;20035;-88
2021/08/27 02:15:15;;;;;;;1.98;0.60;;;14.00;84.30;;;;;;2050341;28;20195;-88
2021/08/27 02:16:16;;;;;;;1.63;0.40;;;14.00;84.30;;;;;;2049205;28;20039;-88
2021/08/27 02:17:18;;;;;;;2.20;0.60;;;14.00;84.30;;;;;;2041484;29;20035;-88
2021/08/27 02:18:19;;;;;;;1.90;0.57;;;14.00;84.30;;;;;;2050290;28;20039;-88
2021/08/27 02:19:20;;;;;;;1.20;0.35;;;14.00;84.30;;;;;;2057848;28;20509;-88
2021/08/27 02:20:20;;;;;;;2.38;0.70;;;14.00;84.30;;;;;;2050273;28;20474;-88
2021/08/27 02:21:23;;;;;;;2.05;0.50;;;14.00;84.30;;;;;;2056020;28;20086;-88
2021/08/27 02:22:28;;;;;;;1.92;0.63;;;14.00;84.90;;;;;;2058198;28;20573;-87
2021/08/27 02:23:29;;;;;;;2.45;0.60;;;14.00;84.30;;;;;;2058635;28;20393;-87
2021/08/27 02:24:35;;;;;;;3.97;0.60;;;14.00;84.30;;;;;;2058750;28;20035;-88
2021/08/27 02:25:38;;;;;;;3.53;0.70;;;14.00;84.90;;;;;;2056369;28;20031;-87
2021/08/27 02:26:44;;;;;;;1.83;0.50;;;14.00;84.30;;;;;;2052840;28;20089;-88
2021/08/27 02:27:46;;;;;;;2.92;0.68;;;14.10;84.30;;;;;;2057597;28;20125;-88
2021/08/27 02:28:48;;;;;;;2.85;0.57;;;14.10;84.30;;;;;;2049213;28;20035;-88
2021/08/27 02:29:52;;;;;;;2.60;0.57;;;14.10;84.30;;;;;;2057360;28;20034;-88
2021/08/27 02:30:54;;;;;;;1.90;0.45;;;14.10;84.30;;;;;;2059822;28;20077;-88
2021/08/27 02:32:01;;;;;;;2.60;0.65;;;14.10;84.30;;;;;;2057501;28;20037;-88
2021/08/27 02:33:07;;;;;;;3.40;0.60;;;14.10;84.30;;;;;;2055309;28;20046;-88
2021/08/27 02:34:08;;;;;;;1.05;0.40;;;14.10;84.30;;;;;;2048747;28;20035;-88
2021/08/27 02:35:10;;;;;;;2.15;0.60;;;14.10;84.30;;;;;;2048303;29;20047;-88
2021/08/27 02:36:18;;;;;;;2.05;0.50;;;14.10;84.30;;;;;;2050328;29;20032;-88
2021/08/27 02:37:21;;;;;;;1.23;0.40;;;14.10;84.30;;;;;;2050613;28;20036;-88
2021/08/27 02:38:25;;;;;;;2.55;0.60;;;14.10;84.30;;;;;;2057821;28;20565;-88
2021/08/27 02:39:29;;;;;;;1.45;0.50;;;14.10;84.90;;;;;;2057348;28;20066;-88
2021/08/27 02:40:29;;;;;;;1.80;0.57;;;14.10;84.30;;;;;;2051969;28;20063;-88
2021/08/27 02:41:30;;;;;;;1.73;0.47;;;14.10;84.30;;;;;;2057759;28;20129;-88
2021/08/27 02:42:32;;;;;;;3.00;0.60;;;14.10;84.30;;;;;;2059449;28;20143;-88
2021/08/27 02:43:32;;;;;;;3.13;0.50;;;14.10;84.30;;;;;;2057756;28;20399;-88
2021/08/27 02:44:33;;;;;;;1.60;0.50;;;14.10;84.30;;;;;;2066182;28;20706;-88
2021/08/27 02:45:34;;;;;;;2.00;0.50;;;14.10;84.30;;;;;;2052147;28;20533;-88
2021/08/27 02:46:35;;;;;;;1.95;0.55;;;14.10;84.40;;;;;;2042283;29;20437;-87
2021/08/27 02:47:36;;;;;;;1.80;0.38;;;14.10;84.40;;;;;;2055964;28;20521;-88
2021/08/27 02:48:36;;;;;;;3.13;0.65;;;14.10;84.40;;;;;;2047497;28;20031;-88
2021/08/27 02:49:37;;;;;;;1.92;0.60;;;14.10;84.40;;;;;;2059443;28;20019;-88
2021/08/27 02:50:44;;;;;;;1.95;0.55;;;14.10;84.40;;;;;;2065290;28;20041;-88
2021/08/27 02:52:11;;;;;;;1.90;0.45;;;14.10;84.50;;;;;;2065755;28;20034;-88
2021/08/27 02:53:17;;;;;;;1.42;0.40;;;14.10;84.50;;;;;;2058312;28;20121;-88
2021/08/27 02:54:20;;;;;;;1.50;0.50;;;14.00;84.40;;;;;;2062104;28;20517;-88
2021/08/27 02:55:33;;;;;;;1.73;0.40;;;14.10;84.50;;;;;;2063750;28;20034;-88
2021/08/27 02:56:39;;;;;;;2.63;0.60;;;14.00;84.50;;;;;;2065451;28;20034;-88
2021/08/27 02:57:52;;;;;;;2.00;0.57;;;14.00;85.10;;;;;;2065334;28;20101;-88
2021/08/27 02:58:55;;;;;;;2.03;0.68;;;14.00;84.50;;;;;;2056614;28;20042;-89
2021/08/27 02:59:58;;;;;;;2.13;0.50;;;14.00;84.50;;;;;;2057078;28;20038;-89
2021/08/27 03:01:18;;;;;;;3.72;0.60;;;14.00;84.50;;;;;;2057328;28;20030;-89
2021/08/27 03:02:19;;;;;;;1.33;0.47;;;14.00;84.60;;;;;;2069253;28;20018;-89
2021/08/27 03:03:25;;;;;;;1.58;0.50;;;14.00;84.60;;;;;;2051919;28;20050;-89
2021/08/27 03:04:47;;;;;;;1.25;0.40;;;14.00;85.20;;;;;;2060737;28;20034;-89
2021/08/27 03:05:56;;;;;;;1.38;0.40;;;14.00;84.60;;;;;;2066415;28;20042;-89
2021/08/27 03:07:06;;;;;;;2.05;0.60;;;14.00;84.60;;;;;;2066423;28;20035;-89
2021/08/27 03:08:12;;;;;;;1.10;0.40;;;14.00;84.50;;;;;;2057674;28;20042;-88
2021/08/27 03:09:13;;;;;;;2.08;0.70;;;14.00;84.50;;;;;;2053649;28;20034;-89
2021/08/27 03:10:25;;;;;;;1.27;0.55;;;14.00;84.60;;;;;;2057745;28;20031;-89
2021/08/27 03:11:30;;;;;;;2.08;0.50;;;14.00;84.60;;;;;;2056072;28;20035;-89
2021/08/27 03:13:11;;;;;;;2.33;0.55;;;14.00;84.60;;;;;;2058408;28;20480;-89
2021/08/27 03:14:19;;;;;;;1.65;0.43;;;14.10;84.60;;;;;;2055101;28;20401;-89
2021/08/27 03:15:29;;;;;;;2.00;0.57;;;14.10;84.60;;;;;;2049631;29;20035;-89
2021/08/27 03:16:30;;;;;;;;;;;14.10;84.60;;;;;;2054132;28;20035;-89
2021/08/27 03:17:35;;;;;;;1.38;0.40;;;14.10;84.50;;;;;;2056439;28;20384;-90
2021/08/27 03:18:58;;;;;;;1.98;0.60;;;14.10;84.50;;;;;;2057325;28;20047;-89
2021/08/27 03:20:25;;;;;;;1.33;0.47;;;14.10;84.30;;;;;;2057966;28;20193;-89
2021/08/27 03:22:03;;;;;;;1.48;0.40;;;14.10;84.30;;;;;;2057858;28;20035;-89
2021/08/27 03:23:08;;;;;;;1.52;0.50;;;14.10;84.30;;;;;;2055444;28;20035;-89
2021/08/27 03:24:19;;;;;;;2.17;0.50;;;14.10;84.30;;;;;;2057595;28;20089;-89
2021/08/27 03:25:22;;;;;;;2.35;0.63;;;14.10;84.30;;;;;;2056756;28;20581;-89
2021/08/27 03:26:25;;;;;;;2.78;0.50;;;14.10;84.30;;;;;;2041656;28;20047;-87
2021/08/27 03:27:34;;;;;;;1.95;0.50;;;14.20;84.40;;;;;;2056423;28;20126;-89
2021/08/27 03:28:41;;;;;;;2.17;0.60;;;14.20;84.30;;;;;;2058389;28;20085;-89
2021/08/27 03:29:48;;;;;;;2.45;0.57;;;14.20;84.30;;;;;;2057416;28;20114;-89
2021/08/27 03:30:51;;;;;;;1.70;0.30;;;14.20;84.30;;;;;;2061401;28;20257;-89
2021/08/27 03:31:53;;;;;;;1.83;0.50;;;14.20;84.30;;;;;;2056466;28;20053;-89
2021/08/27 03:33:06;;;;;;;1.13;0.40;;;14.20;84.20;;;;;;2057758;28;20126;-89
2021/08/27 03:34:07;;;;;;;1.65;0.40;;;14.30;84.30;;;;;;2055962;28;20066;-89
2021/08/27 03:35:08;;;;;;;0.82;0.40;;;14.30;84.30;;;;;;2057428;28;20185;-88
2021/08/27 03:36:10;;;;;;;2.70;0.68;;;14.30;84.30;;;;;;2049073;28;20502;-89
2021/08/27 03:37:12;;;;;;;1.65;0.50;;;14.30;84.30;;;;;;2044917;29;21136;-90
2021/08/27 03:38:13;;;;;;;1.15;0.50;;;14.30;84.30;;;;;;2056362;28;20087;-89
2021/08/27 03:39:14;;;;;;;2.42;0.50;;;14.30;84.30;;;;;;2057836;28;20058;-89
2021/08/27 03:40:16;;;;;;;1.90;0.60;;;14.30;84.30;;;;;;2058703;28;20051;-89
2021/08/27 03:41:18;;;;;;;2.30;0.40;;;14.30;84.90;;;;;;2057472;28;20058;-89
2021/08/27 03:42:20;;;;;;;1.50;0.40;;;14.30;84.30;;;;;;2043430;29;20126;-89
2021/08/27 03:43:22;;;;;;;1.55;0.40;;;14.30;84.30;;;;;;2048951;28;20525;-89
2021/08/27 03:44:23;;;;;;;2.47;0.50;;;14.40;84.40;;;;;;2049733;28;20039;-89
2021/08/27 03:45:25;;;;;;;1.30;0.50;;;14.40;84.40;;;;;;2055182;28;20034;-89
2021/08/27 03:46:26;;;;;;;3.03;0.70;;;14.40;84.40;;;;;;2056389;28;20138;-89
2021/08/27 03:47:27;;;;;;;1.77;0.43;;;14.30;84.30;;;;;;2059594;28;20078;-89
2021/08/27 03:48:29;;;;;;;2.88;0.70;;;14.40;84.30;;;;;;2055370;28;20035;-89
2021/08/27 03:49:30;;;;;;;1.05;0.50;;;14.40;84.30;;;;;;2041555;28;20057;-89
2021/08/27 03:50:31;;;;;;;3.15;0.65;;;14.40;84.30;;;;;;2053477;28;20458;-89
2021/08/27 03:51:33;;;;;;;1.58;0.50;;;14.40;84.20;;;;;;2062699;28;20398;-89
2021/08/27 03:52:35;;;;;;;2.10;0.50;;;14.40;84.20;;;;;;2062334;28;20042;-89
2021/08/27 03:53:37;;;;;;;1.88;0.50;;;14.40;84.20;;;;;;2060225;28;20089;-89
2021/08/27 03:54:38;;;;;;;1.90;0.50;;;14.40;84.20;;;;;;2065388;28;20031;-89
2021/08/27 03:55:40;;;;;;;1.85;0.40;;;14.40;84.20;;;;;;2062039;28;20508;-89
2021/08/27 03:56:42;;;;;;;1.80;0.50;;;14.40;84.20;;;;;;2058426;28;20074;-89
2021/08/27 03:57:46;;;;;;;3.88;0.60;;;14.40;84.30;;;;;;2057714;28;20405;-90
2021/08/27 03:58:47;;;;;;;1.95;0.50;;;14.40;84.20;;;;;;2056566;28;20034;-89
2021/08/27 03:59:48;;;;;;;1.60;0.52;;;14.40;84.20;;;;;;2057437;28;20080;-89
2021/08/27 04:00:50;;;;;;;1.17;0.50;;;14.40;84.30;;;;;;2049310;28;20043;-89
2021/08/27 04:01:53;;;;;;;1.80;0.50;;;14.50;84.30;;;;;;2057375;28;20065;-89
2021/08/27 04:02:53;;;;;;;3.53;0.60;;;14.40;84.30;;;;;;2056895;28;20046;-88
2021/08/27 04:03:54;;;;;;;1.83;0.50;;;14.50;84.30;;;;;;2056217;28;20046;-89
2021/08/27 04:05:12;;;;;;;1.63;0.50;;;14.50;84.30;;;;;;2057421;28;20042;-89
2021/08/27 04:06:13;;;;;;;2.33;0.40;;;14.50;84.30;;;;;;2057841;28;20038;-88
2021/08/27 04:07:17;;;;;;;1.40;0.45;;;14.40;84.30;;;;;;2060654;28;20428;-89
2021/08/27 04:08:18;;;;;;;2.55;0.60;;;14.40;84.30;;;;;;2057829;28;20074;-89
2021/08/27 04:09:18;;;;;;;0.90;0.40;;;14.40;84.40;;;;;;2049101;29;20254;-89
2021/08/27 04:10:21;;;;;;;1.05;0.40;;;14.40;85.00;;;;;;2049473;28;20043;-89
2021/08/27 04:11:21;;;;;;;3.15;0.70;;;14.40;84.50;;;;;;2065181;28;20027;-89
2021/08/27 04:12:22;;;;;;;1.20;0.50;;;14.40;84.50;;;;;;2061988;28;20039;-88
2021/08/27 04:13:23;;;;;;;1.92;0.60;;;14.40;84.50;;;;;;2057700;28;20050;-89
2021/08/27 04:14:23;;;;;;;1.63;0.55;;;14.40;84.50;;;;;;2056856;28;20049;-89
2021/08/27 04:15:24;;;;;;;1.80;0.55;;;14.30;84.50;;;;;;2057032;28;20043;-89
2021/08/27 04:16:25;;;;;;;2.03;0.60;;;14.30;84.60;;;;;;2057911;28;20034;-89
2021/08/27 04:17:25;;;;;;;1.65;0.50;;;14.30;84.60;;;;;;2056574;28;20043;-89
2021/08/27 04:18:26;;;;;;;1.60;0.57;;;14.30;84.70;;;;;;2049771;28;20035;-90
2021/08/27 04:19:27;;;;;;;2.25;0.50;;;14.30;84.70;;;;;;2056355;28;20086;-89
2021/08/27 04:20:27;;;;;;;2.28;0.55;;;14.30;84.80;;;;;;2064797;28;20038;-89
2021/08/27 04:21:28;;;;;;;1.38;0.43;;;14.30;84.80;;;;;;2057207;28;20050;-89
2021/08/27 04:22:30;;;;;;;1.67;0.50;;;14.30;84.90;;;;;;2040065;29;20126;-89
2021/08/27 04:23:31;;;;;;;1.40;0.45;;;14.30;84.80;;;;;;2042285;28;20051;-89
2021/08/27 04:24:31;;;;;;;1.92;0.50;;;14.30;84.90;;;;;;2057206;28;20059;-89
2021/08/27 04:25:32;;;;;;;1.63;0.30;;;14.20;84.80;;;;;;2057200;28;20047;-86
2021/08/27 04:26:34;;;;;;;1.05;0.52;;;14.20;84.90;;;;;;2047728;28;20490;-88
2021/08/27 04:27:34;;;;;;;1.75;0.47;;;14.20;84.90;;;;;;2045564;29;20046;-90
2021/08/27 04:28:35;;;;;;;1.20;0.50;;;14.20;85.00;;;;;;2056656;28;20039;-88
2021/08/27 04:29:36;;;;;;;1.77;0.65;;;14.20;85.00;;;;;;2057630;28;20042;-89
2021/08/27 04:30:37;;;;;;;2.88;0.65;;;14.10;85.00;;;;;;2055221;28;20035;-89
2021/08/27 04:31:39;;;;;;;1.70;0.40;;;14.10;85.00;;;;;;2055343;28;20035;-90
2021/08/27 04:32:39;;;;;;;0.90;0.40;;;14.10;85.10;;;;;;2049237;29;20039;-89
2021/08/27 04:33:40;;;;;;;1.48;0.50;;;14.10;85.20;;;;;;2054168;28;20035;-88
2021/08/27 04:34:40;;;;;;;0.90;0.40;;;14.10;85.20;;;;;;2058471;28;20034;-89
2021/08/27 04:35:41;;;;;;;1.98;0.60;;;14.10;85.30;;;;;;2059225;28;20041;-90
2021/08/27 04:36:42;;;;;;;1.15;0.47;;;14.10;85.30;;;;;;2056518;29;20035;-88
2021/08/27 04:37:42;;;;;;;2.45;0.50;;;14.10;85.30;;;;;;2046635;29;20086;-89
2021/08/27 04:38:43;;;;;;;1.42;0.45;;;14.10;85.30;;;;;;2045370;29;20067;-89
2021/08/27 04:39:44;;;;;;;0.80;0.40;;;14.10;85.40;;;;;;2045080;29;20517;-89
2021/08/27 04:40:44;;;;;;;2.22;0.50;;;14.10;85.30;;;;;;2042211;29;20103;-89
2021/08/27 04:41:45;;;;;;;1.33;0.50;;;14.10;85.40;;;;;;2056437;28;20043;-90
2021/08/27 04:42:45;;;;;;;1.83;0.60;;;14.10;85.90;;;;;;2033431;29;20057;-88
2021/08/27 04:43:50;;;;;;;0.93;0.43;;;14.10;85.30;;;;;;2040847;29;20629;-89
2021/08/27 04:44:50;;;;;;;2.13;0.55;;;14.10;85.30;;;;;;2057136;28;20031;-89
2021/08/27 04:45:51;;;;;;;2.42;0.50;;;14.10;85.30;;;;;;2041030;29;20039;-89
2021/08/27 04:46:52;;;;;;;5.22;0.75;;;14.10;86.00;;;;;;2048928;28;20031;-89
2021/08/27 04:47:52;;;;;;;2.50;0.63;;;14.10;85.40;;;;;;2056095;28;20038;-89
2021/08/27 04:48:53;;;;;;;2.35;0.75;;;14.10;85.40;;;;;;2048340;29;20027;-89
2021/08/27 04:49:53;;;;;;;1.42;0.55;;;14.10;86.00;;;;;;2049044;28;20035;-90
2021/08/27 04:50:54;;;;;;;2.20;0.60;;;14.10;85.40;;;;;;2032818;29;20040;-89
2021/08/27 04:51:55;;;;;;;1.63;0.50;;;14.10;85.40;;;;;;2028943;29;20036;-89
2021/08/27 04:52:55;;;;;;;1.45;0.52;;;14.10;85.40;;;;;;2049368;28;20040;-89
2021/08/27 04:53:56;;;;;;;1.20;0.60;;;14.10;85.40;;;;;;2049138;28;20094;-85
2021/08/27 04:54:56;;;;;;;1.30;0.50;;;14.10;85.40;;;;;;2048059;28;20043;-90
2021/08/27 04:55:57;;;;;;;1.95;0.52;;;14.10;85.40;;;;;;2060218;28;20563;-89
2021/08/27 04:56:58;;;;;;;1.55;0.60;;;14.20;85.40;;;;;;2062099;28;20198;-88
2021/08/27 04:57:58;;;;;;;1.70;0.60;;;14.20;85.40;;;;;;2057078;28;20487;-91
2021/08/27 04:58:59;;;;;;;1.67;0.60;;;14.20;85.40;;;;;;2055607;28;20436;-90
2021/08/27 04:59:59;;;;;;;2.13;0.70;;;14.20;85.30;;;;;;2048129;28;20043;-87
2021/08/27 05:01:00;;;;;;;1.58;0.57;;;14.20;85.40;;;;;;2039950;29;20040;-89
2021/08/27 05:02:01;;;;;;;1.65;0.60;;;14.20;85.30;;;;;;2047873;29;20526;-88
2021/08/27 05:03:02;;;;;;;2.33;0.52;;;14.20;85.40;;;;;;2053078;28;20045;-91
2021/08/27 05:04:02;;;;;;;1.95;0.65;;;14.20;85.30;;;;;;2055280;28;20042;-88
2021/08/27 05:05:04;;;;;;;3.15;0.70;;;14.20;85.40;;;;;;2055998;28;20038;-88
2021/08/27 05:06:05;;;;;;;2.13;0.57;;;14.20;85.30;;;;;;2047200;28;20055;-88
2021/08/27 05:07:05;;;;;;;1.42;0.47;;;14.20;85.30;;;;;;2048006;28;20042;-88
2021/08/27 05:08:07;;;;;;;1.75;0.50;;;14.20;85.30;;;;;;2055839;28;20665;-88
2021/08/27 05:09:07;;;;;;;1.63;0.50;;;14.20;85.40;;;;;;2047696;29;20039;-88
2021/08/27 05:10:08;;;;;;;1.50;0.50;;;14.30;85.40;;;;;;2048154;29;20155;-88
2021/08/27 05:11:09;;;;;;;2.88;0.50;;;14.30;85.40;;;;;;2053510;28;20045;-88
2021/08/27 05:12:10;;;;;;;1.98;0.57;;;14.30;85.40;;;;;;2048128;29;20047;-88
2021/08/27 05:13:10;;;;;;;2.42;0.50;;;14.30;85.30;;;;;;2048040;28;20070;-88
2021/08/27 05:14:12;;;;;;;1.33;0.50;;;14.30;85.30;;;;;;2046787;28;21212;-88
2021/08/27 05:15:13;;;;;;;1.92;0.50;;;14.30;85.30;;;;;;2055576;28;20146;-88
2021/08/27 05:16:13;;;;;;;2.47;0.50;;;14.30;85.30;;;;;;2055498;28;20442;-88
2021/08/27 05:17:14;;;;;;;1.98;0.50;;;14.30;85.30;;;;;;2056602;28;20042;-88
2021/08/27 05:18:15;;;;;;;1.10;0.50;;;14.30;85.30;;;;;;2064864;28;20092;-88
2021/08/27 05:19:15;;;;;;;2.53;0.50;;;14.30;85.30;;;;;;2040564;29;20044;-88
2021/08/27 05:20:16;;;;;;;1.23;0.60;;;14.40;85.40;;;;;;2048671;28;20106;-88
2021/08/27 05:21:17;;;;;;;2.05;0.50;;;14.40;86.00;;;;;;2058402;28;20039;-87
2021/08/27 05:22:18;;;;;;;2.60;0.60;;;14.40;85.40;;;;;;2040733;29;20481;-88
2021/08/27 05:23:18;;;;;;;4.00;0.40;;;14.40;85.30;;;;;;2040921;28;20040;-88
2021/08/27 05:24:19;;;;;;;2.50;0.50;;;14.40;85.30;;;;;;2040938;29;20067;-88
2021/08/27 05:25:20;;;;;;;1.92;0.43;;;14.40;85.30;;;;;;2040635;29;20040;-88
2021/08/27 05:26:20;;;;;;;1.85;0.50;;;14.40;85.30;;;;;;2056837;28;20054;-88
2021/08/27 05:27:21;;;;;;;1.30;0.50;;;14.50;85.30;;;;;;2064726;28;20038;-88
2021/08/27 05:28:21;;;;;;;1.70;0.50;;;14.40;85.30;;;;;;2064810;28;20046;-88
2021/08/27 05:29:22;;;;;;;1.25;0.38;;;14.50;85.40;;;;;;2059839;28;20041;-87
2021/08/27 05:30:23;;;;;;;2.35;0.50;;;14.50;85.40;;;;;;2057547;28;20039;-88